createdAt,value
2022-12-08T00:02:44.836Z,-0.99
2022-12-08T00:06:06.940Z,-0.96
2022-12-08T00:09:23.889Z,-0.94
2022-12-08T00:12:25.901Z,-0.90
2022-12-08T00:15:27.936Z,-0.86
2022-12-08T00:18:29.893Z,-0.87
2022-12-08T00:21:31.919Z,-0.87
2022-12-08T00:24:36.226Z,-0.85
2022-12-08T00:27:38.178Z,-0.83
2022-12-08T00:30:41.656Z,-0.80
2022-12-08T00:33:43.681Z,-0.76
2022-12-08T00:36:46.115Z,-0.73
2022-12-08T00:39:48.296Z,-0.72
2022-12-08T00:42:50.275Z,-0.72
2022-12-08T00:45:52.521Z,-0.71
2022-12-08T00:48:54.455Z,-0.71
2022-12-08T00:51:56.954Z,-0.70
2022-12-08T00:54:58.935Z,-0.68
2022-12-08T00:58:00.962Z,-0.66
2022-12-08T01:01:09.792Z,-0.65
2022-12-08T01:04:15.801Z,-0.62
2022-12-08T01:07:17.871Z,-0.63
2022-12-08T01:10:19.829Z,-0.62
2022-12-08T01:13:21.840Z,-0.61
2022-12-08T01:16:30.175Z,-0.60
2022-12-08T01:19:32.264Z,-0.58
2022-12-08T01:22:36.223Z,-0.56
2022-12-08T01:25:38.416Z,-0.55
2022-12-08T01:28:41.075Z,-0.51
2022-12-08T01:31:43.163Z,-0.49
2022-12-08T01:34:45.196Z,-0.47
2022-12-08T01:37:47.091Z,-0.43
2022-12-08T01:40:49.495Z,-0.40
2022-12-08T01:44:01.798Z,-0.40
2022-12-08T01:47:04.031Z,-0.35
2022-12-08T01:50:08.644Z,-0.33
2022-12-08T01:53:22.765Z,-0.33
2022-12-08T01:56:50.813Z,-0.34
2022-12-08T02:00:20.945Z,-0.36
2022-12-08T02:03:28.996Z,-0.37
2022-12-08T02:06:36.415Z,-0.36
2022-12-08T02:09:40.232Z,-0.32
2022-12-08T02:12:42.271Z,-0.32
2022-12-08T02:16:04.529Z,-0.33
2022-12-08T02:19:57.196Z,-0.33
2022-12-08T02:23:02.163Z,-0.31
2022-12-08T02:26:16.173Z,-0.29
2022-12-08T02:29:52.921Z,-0.29
2022-12-08T02:32:56.321Z,-0.32
2022-12-08T02:36:25.261Z,-0.31
2022-12-08T02:40:06.445Z,-0.33
2022-12-08T02:43:50.478Z,-0.31
2022-12-08T02:47:05.849Z,-0.32
2022-12-08T02:50:08.487Z,-0.33
2022-12-08T02:56:16.638Z,-0.32
2022-12-08T02:59:51.436Z,-0.32
2022-12-08T03:03:13.744Z,-0.30
2022-12-08T03:06:28.606Z,-0.30
2022-12-08T03:09:50.752Z,-0.30
2022-12-08T03:12:59.374Z,-0.30
2022-12-08T03:16:05.268Z,-0.30
2022-12-08T03:19:18.122Z,-0.29
2022-12-08T03:22:25.550Z,-0.31
2022-12-08T03:25:32.052Z,-0.31
2022-12-08T03:28:34.261Z,-0.30
2022-12-08T03:31:42.078Z,-0.31
2022-12-08T03:34:48.508Z,-0.30
2022-12-08T03:37:50.857Z,-0.27
2022-12-08T03:41:11.585Z,-0.29
2022-12-08T03:44:13.803Z,-0.28
2022-12-08T03:47:15.827Z,-0.27
2022-12-08T03:50:17.978Z,-0.24
2022-12-08T03:53:20.112Z,-0.24
2022-12-08T03:56:28.597Z,-0.23
2022-12-08T03:59:30.651Z,-0.22
2022-12-08T04:02:32.682Z,-0.21
2022-12-08T04:05:34.721Z,-0.22
2022-12-08T04:08:36.684Z,-0.23
2022-12-08T04:11:38.713Z,-0.21
2022-12-08T04:14:40.817Z,-0.19
2022-12-08T04:17:42.813Z,-0.20
2022-12-08T04:20:46.054Z,-0.22
2022-12-08T04:23:48.268Z,-0.24
2022-12-08T04:26:51.157Z,-0.25
2022-12-08T04:29:53.121Z,-0.25
2022-12-08T04:32:55.206Z,-0.25
2022-12-08T04:35:57.890Z,-0.23
2022-12-08T04:39:00.308Z,-0.21
2022-12-08T04:42:02.263Z,-0.24
2022-12-08T04:45:06.094Z,-0.24
2022-12-08T04:48:09.050Z,-0.24
2022-12-08T04:51:19.452Z,-0.23
2022-12-08T04:54:21.438Z,-0.24
2022-12-08T04:57:23.584Z,-0.23
2022-12-08T05:00:25.617Z,-0.20
2022-12-08T05:03:28.849Z,-0.17
2022-12-08T05:06:31.161Z,-0.14
2022-12-08T05:09:33.206Z,-0.13
2022-12-08T05:12:35.213Z,-0.14
2022-12-08T05:15:37.240Z,-0.15
2022-12-08T05:18:41.005Z,-0.14
2022-12-08T05:21:43.211Z,-0.14
2022-12-08T05:24:47.697Z,-0.12
2022-12-08T05:27:49.952Z,-0.11
2022-12-08T05:30:52.048Z,-0.09
2022-12-08T05:33:54.073Z,-0.08
2022-12-08T05:36:56.071Z,-0.08
2022-12-08T05:39:58.129Z,-0.08
2022-12-08T05:43:00.137Z,-0.09
2022-12-08T05:46:02.347Z,-0.11
2022-12-08T05:49:04.666Z,-0.11
2022-12-08T05:52:06.691Z,-0.11
2022-12-08T05:55:09.053Z,-0.12
2022-12-08T05:58:14.369Z,-0.11
2022-12-08T06:01:25.883Z,-0.11
2022-12-08T06:04:28.064Z,-0.10
2022-12-08T06:07:30.416Z,-0.09
2022-12-08T06:10:32.524Z,-0.08
2022-12-08T06:13:34.786Z,-0.08
2022-12-08T06:16:36.773Z,-0.07
2022-12-08T06:19:38.780Z,-0.06
2022-12-08T06:22:40.808Z,-0.06
2022-12-08T06:25:42.815Z,-0.05
2022-12-08T06:28:45.043Z,-0.03
2022-12-08T06:31:47.138Z,-0.01
2022-12-08T06:34:49.256Z,0.01
2022-12-08T06:37:52.008Z,0.02
2022-12-08T06:40:56.120Z,0.06
2022-12-08T06:43:58.753Z,0.07
2022-12-08T06:47:00.824Z,0.09
2022-12-08T06:50:03.311Z,0.11
2022-12-08T06:53:05.930Z,0.19
2022-12-08T06:56:08.492Z,0.25
2022-12-08T06:59:10.749Z,0.36
2022-12-08T07:02:12.856Z,0.49
2022-12-08T07:05:14.909Z,0.70
2022-12-08T07:08:17.017Z,0.86
2022-12-08T07:11:21.880Z,0.93
2022-12-08T07:14:25.121Z,0.96
2022-12-08T07:17:27.149Z,1.08
2022-12-08T07:20:29.263Z,1.18
2022-12-08T07:23:31.334Z,1.24
2022-12-08T07:26:33.335Z,1.27
2022-12-08T07:29:35.371Z,1.35
2022-12-08T07:32:38.571Z,1.42
2022-12-08T07:35:43.832Z,1.45
2022-12-08T07:38:49.160Z,1.42
2022-12-08T07:41:51.168Z,1.36
2022-12-08T07:44:53.152Z,1.29
2022-12-08T07:47:55.071Z,1.23
2022-12-08T07:51:02.232Z,1.18
2022-12-08T07:54:04.353Z,1.24
2022-12-08T07:57:06.886Z,1.20
2022-12-08T08:00:10.755Z,1.15
2022-12-08T08:03:15.454Z,1.07
2022-12-08T08:06:17.618Z,1.13
2022-12-08T08:09:19.688Z,1.07
2022-12-08T08:12:31.172Z,1.06
2022-12-08T08:15:33.976Z,1.15
2022-12-08T08:18:40.831Z,1.19
2022-12-08T08:21:45.865Z,1.24
2022-12-08T08:24:48.344Z,1.37
2022-12-08T08:27:50.463Z,1.36
2022-12-08T08:30:52.528Z,1.29
2022-12-08T08:33:54.648Z,1.23
2022-12-08T08:36:56.755Z,1.19
2022-12-08T08:39:58.841Z,1.20
2022-12-08T08:43:02.194Z,1.13
2022-12-08T08:46:05.596Z,1.06
2022-12-08T08:49:07.643Z,1.06
2022-12-08T08:52:09.755Z,1.09
2022-12-08T08:55:11.846Z,1.15
2022-12-08T08:58:14.302Z,1.25
2022-12-08T09:01:19.179Z,1.29
2022-12-08T09:04:24.492Z,1.35
2022-12-08T09:07:26.464Z,1.46
2022-12-08T09:10:28.530Z,1.62
2022-12-08T09:13:30.566Z,1.81
2022-12-08T09:16:35.112Z,2.04
2022-12-08T09:19:41.174Z,2.26
2022-12-08T09:22:43.212Z,2.43
2022-12-08T09:25:46.153Z,2.59
2022-12-08T09:28:50.236Z,2.75
2022-12-08T09:31:52.388Z,2.99
2022-12-08T09:34:54.592Z,3.36
2022-12-08T09:37:56.699Z,3.70
2022-12-08T09:41:00.024Z,4.11
2022-12-08T09:44:24.868Z,4.34
2022-12-08T09:47:33.938Z,4.39
2022-12-08T09:50:52.761Z,4.35
2022-12-08T09:54:03.563Z,4.31
2022-12-08T09:57:16.009Z,4.49
2022-12-08T10:00:18.368Z,4.74
2022-12-08T10:03:27.748Z,4.86
2022-12-08T10:06:43.173Z,4.79
2022-12-08T10:10:07.992Z,4.59
2022-12-08T10:13:50.448Z,4.57
2022-12-08T10:16:57.379Z,4.60
2022-12-08T10:20:12.954Z,4.69
2022-12-08T10:23:17.880Z,4.74
2022-12-08T10:26:22.128Z,4.79
2022-12-08T10:29:24.119Z,4.75
2022-12-08T10:32:35.551Z,4.77
2022-12-08T10:35:48.418Z,4.79
2022-12-08T10:38:50.519Z,4.84
2022-12-08T10:41:52.475Z,4.65
2022-12-08T10:44:58.177Z,4.65
2022-12-08T10:48:18.569Z,4.75
2022-12-08T10:51:28.762Z,4.94
2022-12-08T10:54:38.627Z,4.98
2022-12-08T10:57:40.720Z,5.10
2022-12-08T11:00:42.848Z,5.10
2022-12-08T11:04:01.996Z,4.97
2022-12-08T11:07:11.901Z,4.95
2022-12-08T11:10:28.272Z,5.02
2022-12-08T11:13:30.921Z,4.87
2022-12-08T11:16:33.156Z,4.79
2022-12-08T11:19:39.571Z,4.77
2022-12-08T11:22:44.229Z,4.86
2022-12-08T11:25:47.145Z,4.92
2022-12-08T11:28:49.181Z,4.91
2022-12-08T11:31:58.459Z,4.76
2022-12-08T11:35:07.698Z,4.69
2022-12-08T11:38:23.121Z,4.69
2022-12-08T11:41:29.987Z,4.67
2022-12-08T11:44:50.348Z,4.65
2022-12-08T11:48:12.620Z,4.58
2022-12-08T11:51:20.490Z,4.59
2022-12-08T11:54:28.216Z,4.63
2022-12-08T11:57:30.495Z,4.70
2022-12-08T12:00:32.546Z,4.72
2022-12-08T12:03:40.650Z,4.71
2022-12-08T12:06:55.389Z,4.60
2022-12-08T12:10:06.875Z,4.54
2022-12-08T12:13:27.661Z,4.44
2022-12-08T12:16:29.715Z,4.39
2022-12-08T12:19:39.262Z,4.44
2022-12-08T12:22:44.939Z,4.47
2022-12-08T12:26:01.488Z,4.47
2022-12-08T12:29:17.767Z,4.51
2022-12-08T12:32:21.004Z,4.50
2022-12-08T12:35:37.419Z,4.45
2022-12-08T12:39:01.541Z,4.49
2022-12-08T12:42:05.249Z,4.44
2022-12-08T12:45:27.226Z,4.32
2022-12-08T12:48:29.326Z,4.24
2022-12-08T12:51:40.145Z,4.24
2022-12-08T12:54:51.503Z,4.27
2022-12-08T12:57:57.572Z,4.25
2022-12-08T13:01:53.261Z,4.23
2022-12-08T13:05:02.469Z,4.15
2022-12-08T13:08:08.796Z,4.17
2022-12-08T13:11:11.645Z,4.17
2022-12-08T13:14:29.267Z,4.23
2022-12-08T13:17:34.139Z,4.22
2022-12-08T13:20:48.211Z,4.20
2022-12-08T13:24:14.693Z,4.15
2022-12-08T13:27:16.703Z,4.15
2022-12-08T13:30:44.692Z,4.21
2022-12-08T13:33:47.644Z,4.20
2022-12-08T13:37:13.963Z,4.17
2022-12-08T13:40:21.413Z,4.06
2022-12-08T13:43:51.040Z,4.02
2022-12-08T13:57:37.731Z,3.85
2022-12-08T14:00:39.898Z,3.87
2022-12-08T14:04:31.044Z,3.88
2022-12-08T14:07:21.814Z,3.87
2022-12-08T14:10:27.812Z,3.87
2022-12-08T14:13:31.936Z,3.83
2022-12-08T14:16:43.595Z,3.78
2022-12-08T14:20:05.008Z,3.74
2022-12-08T14:23:08.496Z,3.71
2022-12-08T14:26:12.984Z,3.64
2022-12-08T14:29:46.143Z,3.51
2022-12-08T14:32:54.928Z,3.48
2022-12-08T14:35:57.970Z,3.45
2022-12-08T14:39:00.074Z,3.41
2022-12-08T14:42:02.175Z,3.36
2022-12-08T14:45:10.366Z,3.29
2022-12-08T14:48:30.804Z,3.18
2022-12-08T14:51:33.581Z,3.05
2022-12-08T14:54:35.963Z,2.97
2022-12-08T14:57:37.947Z,2.93
2022-12-08T15:00:47.351Z,2.78
2022-12-08T15:03:51.398Z,2.77
2022-12-08T15:07:14.416Z,2.75
2022-12-08T15:10:16.314Z,2.73
2022-12-08T15:13:19.647Z,2.76
2022-12-08T15:16:28.495Z,2.80
2022-12-08T15:19:33.426Z,2.82
2022-12-08T15:22:35.462Z,2.81
2022-12-08T15:25:38.280Z,2.76
2022-12-08T15:28:40.293Z,2.72
2022-12-08T15:31:42.413Z,2.71
2022-12-08T15:34:44.773Z,2.70
2022-12-08T15:37:46.791Z,2.69
2022-12-08T15:40:49.687Z,2.67
2022-12-08T15:43:51.714Z,2.65
2022-12-08T15:46:54.409Z,2.64
2022-12-08T15:49:56.449Z,2.66
2022-12-08T15:52:58.510Z,2.68
2022-12-08T15:59:28.578Z,2.66
2022-12-08T16:02:49.233Z,2.63
2022-12-08T16:06:20.441Z,2.57
2022-12-08T16:09:36.580Z,2.45
2022-12-08T16:16:29.664Z,2.45
2022-12-08T16:19:31.651Z,2.49
2022-12-08T16:29:21.085Z,2.45
2022-12-08T16:32:24.086Z,2.46
2022-12-08T16:35:26.184Z,2.39
2022-12-08T16:38:28.439Z,2.37
2022-12-08T16:41:49.108Z,2.37
2022-12-08T16:44:51.472Z,2.38
2022-12-08T16:47:58.850Z,2.39
2022-12-08T16:51:01.063Z,2.40
2022-12-08T16:54:03.266Z,2.42
2022-12-08T16:57:05.464Z,2.45
2022-12-08T17:00:11.102Z,2.45
2022-12-08T17:03:15.236Z,2.44
2022-12-08T17:06:19.065Z,2.43
2022-12-08T17:09:21.286Z,2.45
2022-12-08T17:12:23.640Z,2.42
2022-12-08T17:15:26.164Z,2.43
2022-12-08T17:18:28.704Z,2.45
2022-12-08T17:21:31.053Z,2.44
2022-12-08T17:24:33.521Z,2.45
2022-12-08T17:27:36.729Z,2.42
2022-12-08T17:30:39.306Z,2.41
2022-12-08T17:33:42.680Z,2.41
2022-12-08T17:36:45.984Z,2.39
2022-12-08T17:39:48.289Z,2.37
2022-12-08T17:42:50.502Z,2.36
2022-12-08T17:45:52.731Z,2.35
2022-12-08T17:48:55.018Z,2.36
2022-12-08T17:51:59.739Z,2.36
2022-12-08T17:55:02.336Z,2.35
2022-12-08T17:58:06.213Z,2.36
2022-12-08T18:01:11.897Z,2.37
2022-12-08T18:04:14.428Z,2.38
2022-12-08T18:07:16.451Z,2.38
2022-12-08T18:10:19.735Z,2.37
2022-12-08T18:13:22.188Z,2.37
2022-12-08T18:16:26.950Z,2.35
2022-12-08T18:19:29.775Z,2.34
2022-12-08T18:22:32.231Z,2.34
2022-12-08T18:25:34.581Z,2.33
2022-12-08T18:28:38.729Z,2.32
2022-12-08T18:31:41.203Z,2.31
2022-12-08T18:34:44.009Z,2.32
2022-12-08T18:37:48.324Z,2.32
2022-12-08T18:40:50.860Z,2.30
2022-12-08T18:43:55.400Z,2.28
2022-12-08T18:46:57.658Z,2.23
2022-12-08T18:50:01.018Z,2.22
2022-12-08T18:53:05.572Z,2.22
2022-12-08T18:56:10.476Z,2.25
2022-12-08T18:59:14.806Z,2.27
2022-12-08T19:02:19.127Z,2.30
2022-12-08T19:05:21.843Z,2.31
2022-12-08T19:08:29.720Z,2.31
2022-12-08T19:11:34.218Z,2.30
2022-12-08T19:14:36.967Z,2.31
2022-12-08T19:17:39.922Z,2.28
2022-12-08T19:20:45.426Z,2.26
2022-12-08T19:23:48.283Z,2.25
2022-12-08T19:26:52.369Z,2.25
2022-12-08T19:29:56.866Z,2.26
2022-12-08T19:32:59.735Z,2.28
2022-12-08T19:36:14.834Z,2.29
2022-12-08T19:39:38.741Z,2.27
2022-12-08T19:43:00.196Z,2.28
2022-12-08T19:46:04.995Z,2.28
2022-12-08T19:49:08.297Z,2.30
2022-12-08T19:52:12.088Z,2.30
2022-12-08T19:55:15.159Z,2.30
2022-12-08T19:58:19.925Z,2.30
2022-12-08T20:01:23.927Z,2.32
2022-12-08T20:04:27.753Z,2.30
2022-12-08T20:07:30.370Z,2.31
2022-12-08T20:10:36.630Z,2.31
2022-12-08T20:13:46.202Z,2.31
2022-12-08T20:16:49.498Z,2.30
2022-12-08T20:19:52.839Z,2.29
2022-12-08T20:22:56.658Z,2.29
2022-12-08T20:26:00.125Z,2.27
2022-12-08T20:29:02.915Z,2.29
2022-12-08T20:32:05.902Z,2.27
2022-12-08T20:35:09.516Z,2.25
2022-12-08T20:38:13.264Z,2.26
2022-12-08T20:41:18.317Z,2.22
2022-12-08T20:44:21.607Z,2.20
2022-12-08T20:47:24.951Z,2.21
2022-12-08T20:50:28.736Z,2.22
2022-12-08T20:53:31.965Z,2.22
2022-12-08T20:56:34.409Z,2.22
2022-12-08T20:59:37.554Z,2.21
2022-12-08T21:02:46.923Z,2.18
2022-12-08T21:05:52.604Z,2.13
2022-12-08T21:08:55.901Z,2.14
2022-12-08T21:11:58.298Z,2.16
2022-12-08T21:15:00.613Z,2.14
2022-12-08T21:18:03.161Z,2.15
2022-12-08T21:21:09.738Z,2.16
2022-12-08T21:24:12.403Z,2.16
2022-12-08T21:27:14.674Z,2.17
2022-12-08T21:30:16.907Z,2.18
2022-12-08T21:33:19.263Z,2.19
2022-12-08T21:36:21.854Z,2.19
2022-12-08T21:39:24.127Z,2.19
2022-12-08T21:42:44.356Z,2.19
2022-12-08T21:45:46.643Z,2.18
2022-12-08T21:48:48.808Z,2.19
2022-12-08T21:51:51.062Z,2.21
2022-12-08T21:54:53.300Z,2.21
2022-12-08T21:57:57.544Z,2.20
2022-12-08T22:01:05.971Z,2.18
2022-12-08T22:04:08.365Z,2.14
2022-12-08T22:07:10.755Z,2.14
2022-12-08T22:10:12.854Z,2.15
2022-12-08T22:13:14.898Z,2.17
2022-12-08T22:16:16.975Z,2.17
2022-12-08T22:19:19.289Z,2.16
2022-12-08T22:22:21.531Z,2.13
2022-12-08T22:25:23.710Z,2.12
2022-12-08T22:28:27.177Z,2.09
2022-12-08T22:31:29.521Z,2.05
2022-12-08T22:34:31.930Z,2.04
2022-12-08T22:37:34.166Z,2.02
2022-12-08T22:40:39.909Z,1.99
2022-12-08T22:43:42.983Z,1.97
2022-12-08T22:46:45.318Z,1.98
2022-12-08T22:49:47.510Z,1.99
2022-12-08T22:52:49.592Z,1.98
2022-12-08T22:55:51.921Z,1.98
2022-12-08T22:58:53.924Z,1.97
2022-12-08T23:01:56.093Z,1.98
2022-12-08T23:04:58.431Z,1.96
2022-12-08T23:08:00.851Z,1.97
2022-12-08T23:11:02.939Z,1.96
2022-12-08T23:14:05.252Z,1.94
2022-12-08T23:17:07.493Z,1.96
2022-12-08T23:20:10.622Z,1.98
2022-12-08T23:23:13.710Z,1.99
2022-12-08T23:26:27.632Z,2.02
2022-12-08T23:29:29.802Z,2.03
2022-12-08T23:32:31.905Z,2.05
2022-12-08T23:35:34.066Z,2.06
2022-12-08T23:38:36.254Z,2.06
2022-12-08T23:41:38.377Z,2.07
2022-12-08T23:44:40.690Z,2.08
2022-12-08T23:47:42.811Z,2.10
2022-12-08T23:50:44.797Z,2.12
2022-12-08T23:53:47.426Z,2.13
2022-12-08T23:56:49.438Z,2.13
2022-12-08T23:59:51.520Z,2.12
